createdAt,value
2019-05-12T00:02:21.611Z,93.00
2019-05-12T00:04:49.018Z,92.90
2019-05-12T00:07:18.023Z,93.10
2019-05-12T00:09:47.442Z,93.20
2019-05-12T00:12:14.534Z,93.20
2019-05-12T00:14:42.064Z,93.20
2019-05-12T00:17:09.451Z,93.30
2019-05-12T00:19:37.786Z,93.30
2019-05-12T00:22:07.530Z,93.50
2019-05-12T00:24:34.463Z,93.50
2019-05-12T00:27:04.358Z,93.60
2019-05-12T00:29:31.750Z,93.90
2019-05-12T00:31:59.171Z,94.30
2019-05-12T00:34:28.702Z,94.30
2019-05-12T00:36:57.639Z,94.40
2019-05-12T00:39:24.913Z,94.50
2019-05-12T00:41:52.300Z,94.60
2019-05-12T00:44:19.735Z,94.50
2019-05-12T00:46:48.803Z,94.60
2019-05-12T00:49:18.452Z,94.60
2019-05-12T00:51:45.540Z,94.40
2019-05-12T00:54:12.940Z,94.50
2019-05-12T00:56:40.323Z,94.50
2019-05-12T00:59:08.377Z,94.40
2019-05-12T01:01:37.883Z,94.40
2019-05-12T01:04:05.202Z,94.60
2019-05-12T01:06:32.602Z,94.90
2019-05-12T01:08:59.986Z,94.90
2019-05-12T01:11:28.660Z,94.90
2019-05-12T01:13:58.151Z,94.70
2019-05-12T01:16:25.280Z,94.70
2019-05-12T01:18:52.672Z,94.80
2019-05-12T01:21:20.070Z,94.90
2019-05-12T01:23:56.391Z,94.70
2019-05-12T01:26:17.931Z,94.70
2019-05-12T01:28:45.458Z,95.00
2019-05-12T01:31:14.558Z,95.10
2019-05-12T01:33:41.958Z,95.10
2019-05-12T01:36:09.363Z,95.00
2019-05-12T01:38:37.999Z,94.80
2019-05-12T01:41:05.452Z,95.00
2019-05-12T01:43:32.849Z,94.80
2019-05-12T01:46:00.246Z,95.40
2019-05-12T01:48:28.713Z,95.10
2019-05-12T01:50:57.971Z,95.20
2019-05-12T01:53:25.443Z,95.10
2019-05-12T01:55:52.813Z,95.20
2019-05-12T01:58:20.199Z,95.40
2019-05-12T02:00:48.295Z,95.30
2019-05-12T02:03:17.683Z,95.20
2019-05-12T02:05:48.548Z,95.40
2019-05-12T02:08:21.698Z,95.40
2019-05-12T02:10:52.869Z,95.40
2019-05-12T02:13:20.255Z,95.50
2019-05-12T02:15:48.596Z,95.40
2019-05-12T02:18:17.833Z,95.60
2019-05-12T02:20:45.286Z,95.60
2019-05-12T02:23:12.692Z,95.70
2019-05-12T02:25:40.089Z,95.70
2019-05-12T02:28:09.338Z,95.80
2019-05-12T02:30:40.710Z,95.60
2019-05-12T02:33:05.860Z,95.70
2019-05-12T02:35:35.499Z,95.60
2019-05-12T02:38:04.786Z,95.70
2019-05-12T02:40:34.355Z,95.60
2019-05-12T02:43:00.822Z,95.80
2019-05-12T02:45:28.231Z,95.70
2019-05-12T02:47:55.615Z,95.80
2019-05-12T02:50:35.595Z,95.70
2019-05-12T02:53:05.120Z,96.00
2019-05-12T02:55:34.813Z,96.30
2019-05-12T02:58:05.039Z,96.50
2019-05-12T03:00:35.263Z,96.80
2019-05-12T03:03:05.446Z,97.00
2019-05-12T03:05:35.149Z,97.10
2019-05-12T03:08:04.863Z,97.10
2019-05-12T03:10:35.465Z,97.00
2019-05-12T03:13:04.397Z,97.10
2019-05-12T03:15:31.620Z,97.10
2019-05-12T03:17:59.010Z,97.40
2019-05-12T03:20:26.397Z,97.40
2019-05-12T03:22:55.398Z,97.10
2019-05-12T03:25:28.929Z,97.00
2019-05-12T03:27:54.575Z,96.90
2019-05-12T03:30:21.354Z,96.80
2019-05-12T03:32:48.735Z,96.50
2019-05-12T03:35:17.928Z,96.30
2019-05-12T03:37:45.477Z,96.70
2019-05-12T03:40:14.440Z,96.70
2019-05-12T03:42:44.466Z,96.40
2019-05-12T03:45:14.729Z,96.60
2019-05-12T03:47:40.391Z,96.80
2019-05-12T03:50:07.831Z,96.80
2019-05-12T03:52:35.276Z,96.70
2019-05-12T03:55:05.601Z,96.60
2019-05-12T03:57:34.541Z,96.80
2019-05-12T04:00:01.031Z,96.80
2019-05-12T04:02:28.522Z,96.50
2019-05-12T04:04:55.918Z,96.80
2019-05-12T04:07:24.308Z,96.90
2019-05-12T04:09:54.621Z,97.00
2019-05-12T04:12:21.107Z,97.20
2019-05-12T04:14:48.504Z,97.30
2019-05-12T04:17:15.865Z,97.40
2019-05-12T04:19:44.789Z,97.20
2019-05-12T04:22:15.175Z,97.60
2019-05-12T04:24:44.481Z,97.40
2019-05-12T04:27:10.927Z,97.50
2019-05-12T04:29:38.330Z,97.50
2019-05-12T04:32:05.726Z,97.50
2019-05-12T04:34:34.333Z,97.30
2019-05-12T04:37:04.579Z,97.20
2019-05-12T04:39:33.974Z,97.20
2019-05-12T04:42:00.195Z,97.40
2019-05-12T04:44:27.573Z,97.70
2019-05-12T04:46:55.623Z,97.50
2019-05-12T04:49:24.953Z,97.60
2019-05-12T04:51:54.555Z,97.50
2019-05-12T04:54:24.365Z,97.10
2019-05-12T04:56:50.679Z,97.40
2019-05-12T04:59:18.076Z,97.10
2019-05-12T05:01:45.685Z,97.40
2019-05-12T05:04:15.546Z,97.20
2019-05-12T05:06:44.839Z,96.80
2019-05-12T05:09:14.231Z,96.70
2019-05-12T05:11:40.847Z,96.40
2019-05-12T05:14:08.241Z,96.30
2019-05-12T05:16:35.632Z,95.60
2019-05-12T05:19:03.828Z,95.90
2019-05-12T05:21:31.210Z,96.00
2019-05-12T05:23:58.622Z,95.50
2019-05-12T05:26:28.280Z,95.70
2019-05-12T05:28:55.202Z,95.40
2019-05-12T05:31:24.335Z,95.20
2019-05-12T05:33:53.685Z,95.00
2019-05-12T05:36:21.016Z,94.80
2019-05-12T05:38:51.071Z,95.00
2019-05-12T05:41:17.602Z,95.00
2019-05-12T05:43:48.613Z,95.00
2019-05-12T05:46:14.210Z,94.80
2019-05-12T05:48:43.843Z,94.50
2019-05-12T05:51:10.834Z,94.30
2019-05-12T05:53:38.251Z,94.00
2019-05-12T05:56:05.613Z,93.30
2019-05-12T05:58:33.934Z,93.30
2019-05-12T06:01:03.878Z,93.10
2019-05-12T06:03:30.659Z,93.00
2019-05-12T06:06:01.396Z,93.40
2019-05-12T06:08:27.234Z,93.30
2019-05-12T06:10:54.623Z,93.10
2019-05-12T06:13:29.883Z,93.10
2019-05-12T06:15:51.210Z,92.60
2019-05-12T06:18:18.593Z,92.60
2019-05-12T06:20:45.894Z,93.00
2019-05-12T06:23:14.808Z,93.10
2019-05-12T06:25:49.500Z,93.40
2019-05-12T06:28:11.609Z,92.90
2019-05-12T06:30:44.463Z,91.90
2019-05-12T06:33:08.204Z,92.10
2019-05-12T06:35:42.136Z,90.90
2019-05-12T06:38:05.275Z,91.20
2019-05-12T06:40:40.302Z,89.40
2019-05-12T06:43:04.115Z,87.90
2019-05-12T06:45:34.072Z,86.60
2019-05-12T06:48:00.367Z,87.40
2019-05-12T06:50:28.654Z,86.80
2019-05-12T06:52:56.979Z,85.60
2019-05-12T06:55:28.594Z,84.50
2019-05-12T06:57:54.008Z,84.60
2019-05-12T07:00:22.300Z,83.60
2019-05-12T07:02:53.108Z,80.10
2019-05-12T07:05:19.750Z,79.10
2019-05-12T07:07:47.150Z,77.60
2019-05-12T07:10:35.131Z,77.30
2019-05-12T07:12:58.291Z,76.30
2019-05-12T07:15:14.367Z,76.60
2019-05-12T07:18:04.536Z,77.50
2019-05-12T07:20:35.329Z,74.00
2019-05-12T07:23:03.531Z,74.10
2019-05-12T07:25:31.759Z,75.50
2019-05-12T07:28:00.882Z,75.60
2019-05-12T07:30:31.921Z,76.40
2019-05-12T07:33:01.150Z,77.40
2019-05-12T07:35:28.451Z,73.30
2019-05-12T07:37:56.401Z,72.10
2019-05-12T07:40:29.907Z,71.70
2019-05-12T07:42:55.209Z,73.70
2019-05-12T07:45:25.230Z,72.30
2019-05-12T07:47:53.982Z,71.40
2019-05-12T07:50:24.845Z,72.00
2019-05-12T07:52:50.427Z,71.50
2019-05-12T07:55:17.846Z,72.20
2019-05-12T07:57:55.135Z,71.10
2019-05-12T08:00:21.171Z,72.80
2019-05-12T08:02:44.348Z,71.80
2019-05-12T08:05:19.541Z,69.30
2019-05-12T08:07:41.093Z,68.30
2019-05-12T08:10:17.721Z,67.80
2019-05-12T08:12:37.959Z,67.50
2019-05-12T08:15:09.684Z,68.10
2019-05-12T08:17:35.163Z,68.50
2019-05-12T08:20:04.466Z,69.20
2019-05-12T08:22:31.746Z,68.20
2019-05-12T08:24:59.167Z,70.00
2019-05-12T08:27:26.555Z,68.00
2019-05-12T08:30:01.202Z,66.70
2019-05-12T08:32:23.823Z,67.50
2019-05-12T08:34:54.144Z,67.60
2019-05-12T08:37:21.571Z,69.10
2019-05-12T08:39:53.393Z,68.30
2019-05-12T08:42:18.170Z,69.70
2019-05-12T08:44:45.553Z,69.50
2019-05-12T08:47:15.162Z,67.30
2019-05-12T08:49:51.095Z,67.50
2019-05-12T08:52:11.362Z,70.20
2019-05-12T08:54:39.575Z,70.10
2019-05-12T08:57:07.990Z,69.60
2019-05-12T08:59:35.444Z,70.90
2019-05-12T09:02:07.392Z,72.30
2019-05-12T09:04:33.925Z,73.60
2019-05-12T09:07:01.678Z,75.00
2019-05-12T09:09:29.196Z,73.30
2019-05-12T09:11:56.582Z,74.70
2019-05-12T09:14:24.022Z,74.40
2019-05-12T09:16:53.724Z,76.70
2019-05-12T09:19:24.903Z,75.30
2019-05-12T09:21:49.786Z,75.00
2019-05-12T09:24:21.754Z,77.00
2019-05-12T09:26:46.642Z,75.90
2019-05-12T09:29:14.086Z,74.90
2019-05-12T09:31:43.909Z,73.70
2019-05-12T09:34:14.151Z,74.70
2019-05-12T09:36:39.862Z,73.20
2019-05-12T09:39:07.472Z,73.40
2019-05-12T09:41:42.814Z,74.80
2019-05-12T09:44:04.649Z,74.90
2019-05-12T09:46:34.394Z,72.40
2019-05-12T09:49:01.259Z,73.70
2019-05-12T09:51:32.877Z,74.10
2019-05-12T09:53:57.924Z,73.60
2019-05-12T09:56:25.308Z,71.00
2019-05-12T09:59:01.670Z,69.50
2019-05-12T10:01:24.041Z,69.30
2019-05-12T10:03:51.171Z,69.30
2019-05-12T10:06:21.304Z,71.30
2019-05-12T10:08:47.770Z,67.00
2019-05-12T10:11:16.596Z,69.00
2019-05-12T10:13:44.969Z,67.60
2019-05-12T10:16:13.449Z,67.50
2019-05-12T10:18:43.128Z,67.00
2019-05-12T10:21:15.522Z,68.70
2019-05-12T10:23:39.631Z,67.90
2019-05-12T10:26:10.441Z,69.10
2019-05-12T10:28:36.219Z,69.90
2019-05-12T10:31:04.136Z,69.80
2019-05-12T10:33:33.679Z,68.20
2019-05-12T10:36:06.859Z,65.40
2019-05-12T10:38:30.083Z,66.30
2019-05-12T10:40:57.459Z,71.90
2019-05-12T10:43:24.870Z,72.30
2019-05-12T10:45:53.758Z,70.20
2019-05-12T10:48:23.223Z,67.60
2019-05-12T10:50:50.466Z,70.50
2019-05-12T10:53:18.040Z,70.30
2019-05-12T10:55:45.452Z,70.30
2019-05-12T10:58:14.517Z,67.80
2019-05-12T11:00:44.192Z,70.90
2019-05-12T11:03:14.673Z,72.40
2019-05-12T11:05:40.513Z,71.90
2019-05-12T11:08:10.975Z,74.20
2019-05-12T11:10:37.102Z,74.70
2019-05-12T11:13:08.195Z,74.40
2019-05-12T11:15:34.505Z,70.00
2019-05-12T11:18:07.103Z,68.90
2019-05-12T11:20:34.609Z,73.10
2019-05-12T11:23:03.500Z,72.00
2019-05-12T11:25:33.744Z,73.00
2019-05-12T11:28:00.335Z,70.50
2019-05-12T11:30:27.730Z,67.20
2019-05-12T11:32:55.114Z,69.80
2019-05-12T11:35:23.742Z,69.20
2019-05-12T11:37:53.605Z,66.70
2019-05-12T11:40:20.411Z,67.10
2019-05-12T11:42:59.049Z,64.40
2019-05-12T11:45:17.058Z,66.80
2019-05-12T11:47:44.732Z,67.60
2019-05-12T11:50:13.237Z,66.40
2019-05-12T11:52:40.718Z,66.80
2019-05-12T11:55:08.215Z,65.20
2019-05-12T11:57:35.624Z,64.90
2019-05-12T12:00:05.413Z,64.80
2019-05-12T12:02:34.203Z,66.20
2019-05-12T12:05:01.748Z,63.40
2019-05-12T12:07:29.156Z,65.70
2019-05-12T12:09:59.438Z,62.60
2019-05-12T12:12:25.756Z,64.00
2019-05-12T12:14:53.673Z,64.70
2019-05-12T12:17:25.085Z,65.80
2019-05-12T12:19:50.322Z,65.50
2019-05-12T12:22:20.375Z,68.30
2019-05-12T12:24:46.918Z,67.60
2019-05-12T12:27:14.350Z,63.80
2019-05-12T12:29:43.920Z,64.20
2019-05-12T12:32:18.477Z,62.30
2019-05-12T12:34:40.115Z,62.80
2019-05-12T12:37:07.490Z,66.40
2019-05-12T12:39:34.908Z,63.70
2019-05-12T12:42:04.287Z,64.10
2019-05-12T12:44:33.952Z,63.30
2019-05-12T12:47:01.903Z,60.00
2019-05-12T12:49:29.614Z,61.00
2019-05-12T12:51:56.980Z,60.20
2019-05-12T12:54:24.373Z,62.00
2019-05-12T12:56:53.440Z,64.10
2019-05-12T12:59:20.966Z,64.50
2019-05-12T13:01:48.375Z,62.60
2019-05-12T13:04:15.786Z,64.00
2019-05-12T13:06:43.755Z,62.80
2019-05-12T13:09:22.569Z,62.40
2019-05-12T13:11:40.489Z,62.80
2019-05-12T13:14:07.875Z,61.80
2019-05-12T13:16:35.306Z,61.60
2019-05-12T13:19:03.783Z,63.80
2019-05-12T13:21:33.591Z,66.00
2019-05-12T13:24:03.422Z,66.80
2019-05-12T13:26:30.306Z,66.30
2019-05-12T13:28:57.696Z,67.30
2019-05-12T13:31:25.084Z,65.70
2019-05-12T13:33:54.843Z,66.70
2019-05-12T13:36:24.029Z,66.70
2019-05-12T13:38:50.770Z,66.40
2019-05-12T13:41:19.923Z,67.50
2019-05-12T13:43:54.443Z,66.20
2019-05-12T13:46:16.551Z,63.90
2019-05-12T13:48:43.967Z,65.20
2019-05-12T13:51:13.210Z,62.70
2019-05-12T13:53:45.604Z,61.90
2019-05-12T13:56:09.763Z,64.30
2019-05-12T13:58:42.700Z,63.40
2019-05-12T14:01:16.204Z,63.70
2019-05-12T14:03:39.911Z,62.40
2019-05-12T14:06:04.964Z,62.30
2019-05-12T14:08:34.275Z,64.20
2019-05-12T14:11:02.322Z,64.00
2019-05-12T14:13:29.744Z,63.00
2019-05-12T14:15:57.578Z,65.30
2019-05-12T14:18:24.970Z,63.20
2019-05-12T14:20:58.504Z,61.50
2019-05-12T14:23:23.832Z,60.30
2019-05-12T14:25:50.960Z,61.80
2019-05-12T14:28:18.360Z,62.40
2019-05-12T14:30:49.757Z,61.70
2019-05-12T14:33:18.131Z,64.20
2019-05-12T14:35:45.996Z,65.00
2019-05-12T14:38:14.208Z,64.20
2019-05-12T14:40:41.670Z,63.40
2019-05-12T14:43:15.783Z,65.40
2019-05-12T14:45:38.503Z,64.50
2019-05-12T14:48:09.301Z,64.30
2019-05-12T14:50:35.294Z,64.30
2019-05-12T14:53:03.540Z,65.60
2019-05-12T14:55:31.015Z,65.90
2019-05-12T14:57:58.454Z,64.20
2019-05-12T15:00:25.866Z,65.00
2019-05-12T15:02:53.965Z,65.10
2019-05-12T15:05:24.544Z,64.90
2019-05-12T15:07:53.469Z,64.20
2019-05-12T15:10:19.838Z,64.00
2019-05-12T15:12:47.226Z,63.70
2019-05-12T15:15:20.236Z,63.10
2019-05-12T15:17:44.367Z,61.80
2019-05-12T15:20:13.792Z,61.10
2019-05-12T15:22:42.885Z,61.00
2019-05-12T15:25:10.603Z,61.40
2019-05-12T15:27:44.969Z,61.00
2019-05-12T15:30:19.109Z,60.90
2019-05-12T15:32:37.341Z,60.40
2019-05-12T15:35:05.066Z,61.00
2019-05-12T15:37:34.995Z,60.80
2019-05-12T15:40:04.138Z,61.20
2019-05-12T15:42:30.926Z,61.50
2019-05-12T15:44:58.306Z,59.40
2019-05-12T15:47:29.676Z,61.00
2019-05-12T15:49:54.973Z,61.70
2019-05-12T15:52:24.521Z,61.80
2019-05-12T15:54:53.953Z,62.90
2019-05-12T15:57:20.819Z,60.80
2019-05-12T15:59:48.213Z,60.20
2019-05-12T16:02:17.026Z,62.30
2019-05-12T16:04:48.435Z,60.70
2019-05-12T16:07:14.220Z,60.90
2019-05-12T16:09:45.429Z,61.20
2019-05-12T16:12:19.885Z,61.10
2019-05-12T16:14:41.230Z,63.20
2019-05-12T16:17:08.828Z,62.90
2019-05-12T16:19:36.214Z,61.90
2019-05-12T16:22:03.750Z,63.10
2019-05-12T16:24:31.119Z,62.90
2019-05-12T16:26:58.529Z,62.30
2019-05-12T16:29:25.896Z,63.90
2019-05-12T16:31:53.642Z,64.80
2019-05-12T16:34:21.057Z,64.20
2019-05-12T16:36:52.077Z,64.90
2019-05-12T16:39:17.646Z,64.90
2019-05-12T16:41:45.070Z,63.90
2019-05-12T16:44:17.469Z,65.00
2019-05-12T16:46:41.659Z,63.20
2019-05-12T16:49:09.087Z,63.10
2019-05-12T16:51:36.378Z,62.40
2019-05-12T16:54:03.850Z,63.10
2019-05-12T16:56:31.310Z,63.80
2019-05-12T16:58:58.698Z,62.80
2019-05-12T17:01:29.312Z,61.90
2019-05-12T17:03:55.323Z,62.30
2019-05-12T17:06:23.397Z,62.10
2019-05-12T17:08:50.908Z,61.40
2019-05-12T17:11:26.393Z,61.30
2019-05-12T17:13:59.763Z,60.50
2019-05-12T17:16:16.997Z,61.20
2019-05-12T17:18:44.462Z,62.60
2019-05-12T17:21:14.126Z,61.20
2019-05-12T17:23:41.114Z,61.50
2019-05-12T17:26:08.506Z,62.20
2019-05-12T17:28:35.909Z,64.10
2019-05-12T17:31:03.952Z,64.20
2019-05-12T17:33:33.758Z,64.20
2019-05-12T17:36:05.001Z,63.70
2019-05-12T17:38:30.315Z,65.50
2019-05-12T17:41:00.749Z,63.30
2019-05-12T17:43:26.899Z,64.70
2019-05-12T17:45:56.882Z,65.40
2019-05-12T17:48:23.606Z,66.20
2019-05-12T17:50:50.939Z,65.00
2019-05-12T17:53:18.370Z,65.10
2019-05-12T17:55:50.815Z,65.70
2019-05-12T17:58:15.019Z,65.60
2019-05-12T18:00:47.638Z,65.80
2019-05-12T18:03:21.524Z,67.60
2019-05-12T18:05:42.411Z,67.50
2019-05-12T18:08:10.021Z,68.30
2019-05-12T18:10:37.925Z,69.10
2019-05-12T18:13:06.609Z,69.40
2019-05-12T18:15:37.799Z,70.10
2019-05-12T18:18:04.070Z,70.70
2019-05-12T18:20:40.084Z,70.40
2019-05-12T18:23:00.892Z,71.30
2019-05-12T18:25:32.292Z,72.50
2019-05-12T18:27:57.479Z,71.70
2019-05-12T18:30:24.862Z,72.70
2019-05-12T18:32:54.982Z,72.40
2019-05-12T18:35:21.503Z,73.10
2019-05-12T18:37:48.900Z,72.80
2019-05-12T18:40:16.481Z,73.20
2019-05-12T18:42:43.902Z,74.20
2019-05-12T18:45:12.932Z,74.30
2019-05-12T18:47:40.509Z,75.10
2019-05-12T18:50:07.862Z,75.60
2019-05-12T18:52:42.282Z,76.90
2019-05-12T18:55:04.709Z,76.30
2019-05-12T18:57:33.798Z,76.90
2019-05-12T19:00:04.075Z,78.10
2019-05-12T19:02:30.402Z,79.00
2019-05-12T19:04:57.798Z,78.80
2019-05-12T19:07:38.916Z,79.40
2019-05-12T19:09:54.287Z,79.30
2019-05-12T19:12:31.741Z,80.00
2019-05-12T19:14:52.580Z,80.60
2019-05-12T19:17:20.665Z,80.70
2019-05-12T19:19:52.023Z,80.70
2019-05-12T19:22:17.282Z,81.30
2019-05-12T19:24:44.686Z,81.30
2019-05-12T19:27:18.968Z,81.70
2019-05-12T19:29:48.195Z,81.50
2019-05-12T19:32:10.631Z,81.30
2019-05-12T19:34:39.418Z,81.40
2019-05-12T19:37:06.862Z,81.70
2019-05-12T19:39:34.435Z,81.60
2019-05-12T19:42:03.747Z,82.30
2019-05-12T19:44:31.014Z,82.40
2019-05-12T19:46:58.414Z,82.80
2019-05-12T19:49:28.219Z,82.30
2019-05-12T19:51:55.008Z,82.40
2019-05-12T19:54:25.528Z,83.00
2019-05-12T19:56:53.611Z,83.20
2019-05-12T19:59:20.934Z,83.10
2019-05-12T20:01:48.354Z,84.00
2019-05-12T20:04:29.754Z,84.50
2019-05-12T20:06:44.942Z,84.20
2019-05-12T20:09:14.637Z,84.20
2019-05-12T20:11:41.563Z,84.60
2019-05-12T20:14:10.008Z,84.50
2019-05-12T20:16:38.210Z,84.90
2019-05-12T20:19:05.635Z,85.30
2019-05-12T20:21:34.013Z,85.70
2019-05-12T20:24:03.576Z,85.70
2019-05-12T20:26:33.208Z,85.80
2019-05-12T20:28:59.858Z,86.30
2019-05-12T20:31:27.429Z,86.00
2019-05-12T20:34:03.446Z,86.20
2019-05-12T20:36:25.940Z,86.20
2019-05-12T20:38:53.857Z,85.80
2019-05-12T20:41:24.397Z,86.30
2019-05-12T20:43:50.470Z,86.50
2019-05-12T20:46:21.830Z,87.00
2019-05-12T20:48:47.050Z,87.70
2019-05-12T20:51:19.995Z,87.20
2019-05-12T20:53:43.727Z,87.80
2019-05-12T20:56:12.077Z,88.10
2019-05-12T20:58:43.528Z,87.80
2019-05-12T21:01:09.497Z,87.80
2019-05-12T21:03:39.851Z,87.80
2019-05-12T21:06:06.078Z,88.20
2019-05-12T21:08:33.915Z,88.10
2019-05-12T21:11:01.311Z,88.30
2019-05-12T21:13:31.760Z,87.80
2019-05-12T21:15:57.877Z,87.90
2019-05-12T21:18:25.260Z,87.80
2019-05-12T21:20:54.710Z,87.90
2019-05-12T21:23:23.928Z,88.40
2019-05-12T21:25:57.740Z,88.00
2019-05-12T21:28:20.235Z,88.80
2019-05-12T21:30:49.633Z,88.20
2019-05-12T21:33:16.826Z,87.80
2019-05-12T21:35:46.023Z,87.70
2019-05-12T21:38:13.565Z,87.30
2019-05-12T21:40:40.925Z,87.20
2019-05-12T21:43:08.303Z,87.50
2019-05-12T21:45:35.698Z,87.50
2019-05-12T21:48:03.643Z,87.50
2019-05-12T21:50:33.754Z,87.70
2019-05-12T21:53:04.107Z,87.60
2019-05-12T21:55:30.894Z,87.40
2019-05-12T21:58:01.615Z,87.20
2019-05-12T22:00:34.748Z,87.00
2019-05-12T22:03:06.835Z,87.20
2019-05-12T22:05:48.101Z,87.50
2019-05-12T22:08:03.180Z,87.80
2019-05-12T22:10:31.566Z,87.90
2019-05-12T22:13:00.331Z,88.00
2019-05-12T22:15:29.386Z,88.00
2019-05-12T22:17:59.637Z,88.30
2019-05-12T22:20:27.676Z,88.30
2019-05-12T22:22:55.063Z,88.30
2019-05-12T22:25:23.598Z,88.40
2019-05-12T22:27:53.733Z,88.60
2019-05-12T22:30:20.290Z,89.00
2019-05-12T22:32:47.699Z,89.10
2019-05-12T22:35:21.634Z,90.00
2019-05-12T22:37:45.091Z,89.40
2019-05-12T22:40:17.315Z,89.60
2019-05-12T22:42:44.376Z,90.30
2019-05-12T22:45:15.154Z,90.00
2019-05-12T22:47:43.817Z,90.40
2019-05-12T22:50:13.180Z,90.60
2019-05-12T22:52:45.174Z,90.10
2019-05-12T22:55:09.558Z,90.60
2019-05-12T22:57:40.138Z,90.40
2019-05-12T23:00:06.947Z,90.10
2019-05-12T23:02:34.423Z,90.10
2019-05-12T23:05:03.561Z,90.00
2019-05-12T23:07:33.046Z,90.10
2019-05-12T23:10:00.717Z,90.10
2019-05-12T23:12:29.453Z,90.00
2019-05-12T23:15:03.082Z,90.20
2019-05-12T23:17:26.019Z,90.20
2019-05-12T23:19:55.687Z,90.20
2019-05-12T23:22:23.654Z,90.30
2019-05-12T23:24:51.106Z,90.40
2019-05-12T23:27:18.743Z,90.40
2019-05-12T23:29:47.703Z,90.60
2019-05-12T23:32:15.222Z,90.80
2019-05-12T23:34:44.904Z,90.60
2019-05-12T23:37:14.014Z,90.50
2019-05-12T23:39:41.098Z,90.70
2019-05-12T23:42:08.504Z,90.70
2019-05-12T23:44:35.894Z,90.80
2019-05-12T23:47:04.256Z,90.90
2019-05-12T23:49:33.689Z,91.10
2019-05-12T23:52:00.955Z,91.10
2019-05-12T23:54:28.354Z,91.20
2019-05-12T23:56:55.771Z,91.20
2019-05-12T23:59:23.987Z,91.30
